Terminal Aerodrome Forecast
Issued by NWS Nashville, TN

Home | Current Version | Previous Version | Text Only | Print | Product List | Glossary On
Versions: 1 2 3 4 5 6 7 8 9 10 11 12 13 14 15 16 17 18 19 20 21 22 23 24 25 26
000
FTUS44 KOHX 301742
TAFBNA
TAF
KBNA 301742Z 3018/0118 16007KT P6SM BKN080 OVC100
     FM010000 17006KT P6SM VCSH BKN050
     FM010900 18005KT P6SM OVC015
     FM011500 20007KT P6SM SCT020 BKN040=

USA.gov is the U.S. government's official web portal to all federal, state and local government web resources and services.